sensor_id;sensor_type;location;lat;lon;timestamp;P1;durP1;ratioP1;P2;durP2;ratioP2
13571;SDS011;6857;53.484;10.216;2024-02-23T00:01:14;4.43;;;0.90;;
13571;SDS011;6857;53.484;10.216;2024-02-23T00:03:40;1.83;;;0.80;;
13571;SDS011;6857;53.484;10.216;2024-02-23T00:06:06;1.20;;;0.77;;
13571;SDS011;6857;53.484;10.216;2024-02-23T00:08:31;1.73;;;1.00;;
13571;SDS011;6857;53.484;10.216;2024-02-23T00:10:57;2.70;;;0.80;;
13571;SDS011;6857;53.484;10.216;2024-02-23T00:13:23;3.13;;;1.10;;
13571;SDS011;6857;53.484;10.216;2024-02-23T00:15:48;1.87;;;0.80;;
13571;SDS011;6857;53.484;10.216;2024-02-23T00:18:14;2.70;;;0.80;;
13571;SDS011;6857;53.484;10.216;2024-02-23T00:20:41;2.07;;;0.80;;
13571;SDS011;6857;53.484;10.216;2024-02-23T00:23:06;0.90;;;0.70;;
13571;SDS011;6857;53.484;10.216;2024-02-23T00:25:32;1.50;;;0.47;;
13571;SDS011;6857;53.484;10.216;2024-02-23T00:27:58;1.57;;;0.50;;
13571;SDS011;6857;53.484;10.216;2024-02-23T00:30:23;1.70;;;0.43;;
13571;SDS011;6857;53.484;10.216;2024-02-23T00:32:49;1.63;;;0.50;;
13571;SDS011;6857;53.484;10.216;2024-02-23T00:35:14;0.70;;;0.43;;
13571;SDS011;6857;53.484;10.216;2024-02-23T00:37:40;1.13;;;0.40;;
13571;SDS011;6857;53.484;10.216;2024-02-23T00:40:06;1.53;;;0.40;;
13571;SDS011;6857;53.484;10.216;2024-02-23T00:42:32;1.87;;;0.60;;
13571;SDS011;6857;53.484;10.216;2024-02-23T00:44:57;1.00;;;0.60;;
13571;SDS011;6857;53.484;10.216;2024-02-23T00:47:23;1.17;;;0.57;;
13571;SDS011;6857;53.484;10.216;2024-02-23T00:49:49;1.20;;;0.80;;
13571;SDS011;6857;53.484;10.216;2024-02-23T00:52:14;0.50;;;0.50;;
13571;SDS011;6857;53.484;10.216;2024-02-23T00:54:40;1.60;;;0.63;;
13571;SDS011;6857;53.484;10.216;2024-02-23T00:57:06;1.10;;;0.60;;
13571;SDS011;6857;53.484;10.216;2024-02-23T00:59:31;1.10;;;0.53;;
13571;SDS011;6857;53.484;10.216;2024-02-23T01:01:57;3.13;;;1.00;;
13571;SDS011;6857;53.484;10.216;2024-02-23T01:04:23;1.80;;;0.60;;
13571;SDS011;6857;53.484;10.216;2024-02-23T01:06:48;0.63;;;0.60;;
13571;SDS011;6857;53.484;10.216;2024-02-23T01:09:14;1.27;;;0.73;;
13571;SDS011;6857;53.484;10.216;2024-02-23T01:11:41;1.50;;;0.77;;
13571;SDS011;6857;53.484;10.216;2024-02-23T01:14:07;1.03;;;0.70;;
13571;SDS011;6857;53.484;10.216;2024-02-23T01:16:32;0.93;;;0.43;;
13571;SDS011;6857;53.484;10.216;2024-02-23T01:18:58;1.33;;;0.30;;
13571;SDS011;6857;53.484;10.216;2024-02-23T01:21:23;0.30;;;0.30;;
13571;SDS011;6857;53.484;10.216;2024-02-23T01:23:49;0.23;;;0.20;;
13571;SDS011;6857;53.484;10.216;2024-02-23T01:26:14;0.20;;;0.20;;
13571;SDS011;6857;53.484;10.216;2024-02-23T01:28:40;0.40;;;0.37;;
13571;SDS011;6857;53.484;10.216;2024-02-23T01:31:08;0.20;;;0.20;;
13571;SDS011;6857;53.484;10.216;2024-02-23T01:33:37;0.83;;;0.33;;
13571;SDS011;6857;53.484;10.216;2024-02-23T01:36:04;0.60;;;0.43;;
13571;SDS011;6857;53.484;10.216;2024-02-23T01:38:30;0.40;;;0.40;;
13571;SDS011;6857;53.484;10.216;2024-02-23T01:40:57;1.20;;;0.40;;
13571;SDS011;6857;53.484;10.216;2024-02-23T01:43:23;1.03;;;0.73;;
13571;SDS011;6857;53.484;10.216;2024-02-23T01:45:49;2.40;;;0.50;;
13571;SDS011;6857;53.484;10.216;2024-02-23T01:48:15;0.67;;;0.67;;
13571;SDS011;6857;53.484;10.216;2024-02-23T01:50:42;0.53;;;0.50;;
13571;SDS011;6857;53.484;10.216;2024-02-23T01:53:08;0.40;;;0.40;;
13571;SDS011;6857;53.484;10.216;2024-02-23T01:55:36;0.70;;;0.50;;
13571;SDS011;6857;53.484;10.216;2024-02-23T01:58:03;2.10;;;0.80;;
13571;SDS011;6857;53.484;10.216;2024-02-23T02:00:30;1.53;;;0.60;;
13571;SDS011;6857;53.484;10.216;2024-02-23T02:02:56;0.60;;;0.50;;
13571;SDS011;6857;53.484;10.216;2024-02-23T02:05:22;1.70;;;0.70;;
13571;SDS011;6857;53.484;10.216;2024-02-23T02:07:49;0.67;;;0.63;;
13571;SDS011;6857;53.484;10.216;2024-02-23T02:10:18;1.40;;;0.63;;
13571;SDS011;6857;53.484;10.216;2024-02-23T02:12:45;1.83;;;1.00;;
13571;SDS011;6857;53.484;10.216;2024-02-23T02:15:11;0.60;;;0.60;;
13571;SDS011;6857;53.484;10.216;2024-02-23T02:17:36;1.10;;;0.70;;
13571;SDS011;6857;53.484;10.216;2024-02-23T02:20:02;0.67;;;0.60;;
13571;SDS011;6857;53.484;10.216;2024-02-23T02:22:32;0.60;;;0.50;;
13571;SDS011;6857;53.484;10.216;2024-02-23T02:24:58;0.40;;;0.40;;
13571;SDS011;6857;53.484;10.216;2024-02-23T02:27:24;1.30;;;0.50;;
13571;SDS011;6857;53.484;10.216;2024-02-23T02:29:52;0.20;;;0.20;;
13571;SDS011;6857;53.484;10.216;2024-02-23T02:32:18;0.30;;;0.30;;
13571;SDS011;6857;53.484;10.216;2024-02-23T02:34:43;1.13;;;0.50;;
13571;SDS011;6857;53.484;10.216;2024-02-23T02:37:09;0.37;;;0.37;;
13571;SDS011;6857;53.484;10.216;2024-02-23T02:39:34;0.30;;;0.30;;
13571;SDS011;6857;53.484;10.216;2024-02-23T02:42:01;0.40;;;0.40;;
13571;SDS011;6857;53.484;10.216;2024-02-23T02:44:26;0.50;;;0.50;;
13571;SDS011;6857;53.484;10.216;2024-02-23T02:46:55;0.50;;;0.50;;
13571;SDS011;6857;53.484;10.216;2024-02-23T02:49:23;0.50;;;0.50;;
13571;SDS011;6857;53.484;10.216;2024-02-23T02:51:49;0.50;;;0.50;;
13571;SDS011;6857;53.484;10.216;2024-02-23T02:54:15;0.70;;;0.50;;
13571;SDS011;6857;53.484;10.216;2024-02-23T02:56:44;0.87;;;0.60;;
13571;SDS011;6857;53.484;10.216;2024-02-23T02:59:12;0.60;;;0.60;;
13571;SDS011;6857;53.484;10.216;2024-02-23T03:01:38;2.17;;;0.80;;
13571;SDS011;6857;53.484;10.216;2024-02-23T03:04:04;0.70;;;0.70;;
13571;SDS011;6857;53.484;10.216;2024-02-23T03:06:29;1.17;;;0.70;;
13571;SDS011;6857;53.484;10.216;2024-02-23T03:08:55;0.80;;;0.67;;
13571;SDS011;6857;53.484;10.216;2024-02-23T03:11:20;0.70;;;0.50;;
13571;SDS011;6857;53.484;10.216;2024-02-23T03:13:46;2.80;;;0.63;;
13571;SDS011;6857;53.484;10.216;2024-02-23T03:16:17;2.10;;;0.70;;
13571;SDS011;6857;53.484;10.216;2024-02-23T03:18:43;0.60;;;0.60;;
13571;SDS011;6857;53.484;10.216;2024-02-23T03:21:09;1.50;;;0.73;;
13571;SDS011;6857;53.484;10.216;2024-02-23T03:23:35;0.60;;;0.60;;
13571;SDS011;6857;53.484;10.216;2024-02-23T03:26:01;0.70;;;0.50;;
13571;SDS011;6857;53.484;10.216;2024-02-23T03:28:27;1.93;;;0.70;;
13571;SDS011;6857;53.484;10.216;2024-02-23T03:30:53;2.83;;;0.70;;
13571;SDS011;6857;53.484;10.216;2024-02-23T03:33:19;0.50;;;0.40;;
13571;SDS011;6857;53.484;10.216;2024-02-23T03:35:44;1.50;;;0.40;;
13571;SDS011;6857;53.484;10.216;2024-02-23T03:38:10;0.37;;;0.30;;
13571;SDS011;6857;53.484;10.216;2024-02-23T03:40:36;0.40;;;0.40;;
13571;SDS011;6857;53.484;10.216;2024-02-23T03:43:01;1.03;;;0.40;;
13571;SDS011;6857;53.484;10.216;2024-02-23T03:45:28;0.30;;;0.30;;
13571;SDS011;6857;53.484;10.216;2024-02-23T03:47:53;0.40;;;0.40;;
13571;SDS011;6857;53.484;10.216;2024-02-23T03:50:19;0.67;;;0.30;;
13571;SDS011;6857;53.484;10.216;2024-02-23T03:52:44;0.20;;;0.20;;
13571;SDS011;6857;53.484;10.216;2024-02-23T03:55:10;0.10;;;0.10;;
13571;SDS011;6857;53.484;10.216;2024-02-23T03:57:36;0.20;;;0.20;;
13571;SDS011;6857;53.484;10.216;2024-02-23T04:00:02;0.70;;;0.20;;
13571;SDS011;6857;53.484;10.216;2024-02-23T04:02:28;0.17;;;0.17;;
13571;SDS011;6857;53.484;10.216;2024-02-23T04:04:54;0.30;;;0.20;;
13571;SDS011;6857;53.484;10.216;2024-02-23T04:07:20;0.43;;;0.10;;
13571;SDS011;6857;53.484;10.216;2024-02-23T04:09:45;0.30;;;0.30;;
13571;SDS011;6857;53.484;10.216;2024-02-23T04:12:17;0.20;;;0.20;;
13571;SDS011;6857;53.484;10.216;2024-02-23T04:14:46;0.30;;;0.30;;
13571;SDS011;6857;53.484;10.216;2024-02-23T04:17:12;1.07;;;0.50;;
13571;SDS011;6857;53.484;10.216;2024-02-23T04:19:37;0.57;;;0.30;;
13571;SDS011;6857;53.484;10.216;2024-02-23T04:22:03;0.40;;;0.40;;
13571;SDS011;6857;53.484;10.216;2024-02-23T04:24:31;0.50;;;0.40;;
13571;SDS011;6857;53.484;10.216;2024-02-23T04:26:56;0.77;;;0.30;;
13571;SDS011;6857;53.484;10.216;2024-02-23T04:29:22;1.60;;;0.50;;
13571;SDS011;6857;53.484;10.216;2024-02-23T04:31:47;0.67;;;0.50;;
13571;SDS011;6857;53.484;10.216;2024-02-23T04:34:14;0.80;;;0.40;;
13571;SDS011;6857;53.484;10.216;2024-02-23T04:36:41;0.93;;;0.30;;
13571;SDS011;6857;53.484;10.216;2024-02-23T04:39:07;0.60;;;0.50;;
13571;SDS011;6857;53.484;10.216;2024-02-23T04:41:33;0.60;;;0.37;;
13571;SDS011;6857;53.484;10.216;2024-02-23T04:43:58;1.43;;;1.00;;
13571;SDS011;6857;53.484;10.216;2024-02-23T04:46:25;0.83;;;0.43;;
13571;SDS011;6857;53.484;10.216;2024-02-23T04:48:51;0.40;;;0.40;;
13571;SDS011;6857;53.484;10.216;2024-02-23T04:51:17;1.83;;;0.50;;
13571;SDS011;6857;53.484;10.216;2024-02-23T04:53:42;0.77;;;0.60;;
13571;SDS011;6857;53.484;10.216;2024-02-23T04:56:08;1.43;;;0.60;;
13571;SDS011;6857;53.484;10.216;2024-02-23T04:58:34;1.90;;;0.80;;
13571;SDS011;6857;53.484;10.216;2024-02-23T05:00:59;0.60;;;0.60;;
13571;SDS011;6857;53.484;10.216;2024-02-23T05:03:25;2.60;;;0.73;;
13571;SDS011;6857;53.484;10.216;2024-02-23T05:05:51;1.77;;;0.90;;
13571;SDS011;6857;53.484;10.216;2024-02-23T05:08:19;5.53;;;1.47;;
13571;SDS011;6857;53.484;10.216;2024-02-23T05:10:46;2.57;;;1.10;;
13571;SDS011;6857;53.484;10.216;2024-02-23T05:13:12;1.83;;;0.80;;
13571;SDS011;6857;53.484;10.216;2024-02-23T05:15:38;4.57;;;0.93;;
13571;SDS011;6857;53.484;10.216;2024-02-23T05:18:03;3.53;;;1.20;;
13571;SDS011;6857;53.484;10.216;2024-02-23T05:20:29;1.87;;;1.00;;
13571;SDS011;6857;53.484;10.216;2024-02-23T05:22:54;4.57;;;1.10;;
13571;SDS011;6857;53.484;10.216;2024-02-23T05:25:20;3.23;;;1.10;;
13571;SDS011;6857;53.484;10.216;2024-02-23T05:27:46;3.47;;;1.57;;
13571;SDS011;6857;53.484;10.216;2024-02-23T05:30:11;4.93;;;1.50;;
13571;SDS011;6857;53.484;10.216;2024-02-23T05:32:37;2.73;;;0.80;;
13571;SDS011;6857;53.484;10.216;2024-02-23T05:35:03;1.43;;;1.20;;
13571;SDS011;6857;53.484;10.216;2024-02-23T05:37:29;1.07;;;0.97;;
13571;SDS011;6857;53.484;10.216;2024-02-23T05:39:55;3.33;;;1.17;;
13571;SDS011;6857;53.484;10.216;2024-02-23T05:42:20;3.37;;;1.17;;
13571;SDS011;6857;53.484;10.216;2024-02-23T05:44:46;5.27;;;1.47;;
13571;SDS011;6857;53.484;10.216;2024-02-23T05:47:13;2.40;;;0.93;;
13571;SDS011;6857;53.484;10.216;2024-02-23T05:49:39;4.87;;;1.10;;
13571;SDS011;6857;53.484;10.216;2024-02-23T05:52:05;1.27;;;1.10;;
13571;SDS011;6857;53.484;10.216;2024-02-23T05:54:30;2.03;;;1.20;;
13571;SDS011;6857;53.484;10.216;2024-02-23T05:56:56;1.20;;;0.90;;
13571;SDS011;6857;53.484;10.216;2024-02-23T05:59:21;0.70;;;0.70;;
13571;SDS011;6857;53.484;10.216;2024-02-23T06:01:47;1.77;;;0.80;;
13571;SDS011;6857;53.484;10.216;2024-02-23T06:04:12;2.97;;;0.90;;
13571;SDS011;6857;53.484;10.216;2024-02-23T06:06:41;3.83;;;0.90;;
13571;SDS011;6857;53.484;10.216;2024-02-23T06:09:08;1.33;;;0.83;;
13571;SDS011;6857;53.484;10.216;2024-02-23T06:11:34;1.03;;;0.70;;
13571;SDS011;6857;53.484;10.216;2024-02-23T06:14:00;2.03;;;0.77;;
13571;SDS011;6857;53.484;10.216;2024-02-23T06:16:25;1.80;;;1.00;;
13571;SDS011;6857;53.484;10.216;2024-02-23T06:18:51;1.80;;;0.73;;
13571;SDS011;6857;53.484;10.216;2024-02-23T06:21:17;1.37;;;0.80;;
13571;SDS011;6857;53.484;10.216;2024-02-23T06:23:43;2.23;;;0.97;;
13571;SDS011;6857;53.484;10.216;2024-02-23T06:26:10;1.03;;;0.67;;
13571;SDS011;6857;53.484;10.216;2024-02-23T06:28:36;1.67;;;0.73;;
13571;SDS011;6857;53.484;10.216;2024-02-23T06:31:04;1.30;;;0.80;;
13571;SDS011;6857;53.484;10.216;2024-02-23T06:33:30;1.87;;;0.90;;
13571;SDS011;6857;53.484;10.216;2024-02-23T06:35:56;4.77;;;1.00;;
13571;SDS011;6857;53.484;10.216;2024-02-23T06:38:22;1.17;;;1.00;;
13571;SDS011;6857;53.484;10.216;2024-02-23T06:40:47;1.80;;;1.07;;
13571;SDS011;6857;53.484;10.216;2024-02-23T06:43:13;2.63;;;1.13;;
13571;SDS011;6857;53.484;10.216;2024-02-23T06:45:38;2.70;;;1.50;;
13571;SDS011;6857;53.484;10.216;2024-02-23T06:48:04;3.20;;;1.20;;
13571;SDS011;6857;53.484;10.216;2024-02-23T06:50:30;4.93;;;1.50;;
13571;SDS011;6857;53.484;10.216;2024-02-23T06:52:56;4.50;;;1.50;;
13571;SDS011;6857;53.484;10.216;2024-02-23T06:55:21;4.83;;;1.40;;
13571;SDS011;6857;53.484;10.216;2024-02-23T06:57:47;2.33;;;1.10;;
13571;SDS011;6857;53.484;10.216;2024-02-23T07:00:13;1.20;;;1.10;;
13571;SDS011;6857;53.484;10.216;2024-02-23T07:02:39;1.67;;;1.47;;
13571;SDS011;6857;53.484;10.216;2024-02-23T07:05:05;5.00;;;1.50;;
13571;SDS011;6857;53.484;10.216;2024-02-23T07:07:32;3.50;;;1.40;;
13571;SDS011;6857;53.484;10.216;2024-02-23T07:09:58;5.03;;;1.90;;
13571;SDS011;6857;53.484;10.216;2024-02-23T07:12:24;2.87;;;1.43;;
13571;SDS011;6857;53.484;10.216;2024-02-23T07:14:58;1.77;;;1.67;;
13571;SDS011;6857;53.484;10.216;2024-02-23T07:17:24;3.07;;;1.77;;
13571;SDS011;6857;53.484;10.216;2024-02-23T07:19:50;2.70;;;1.53;;
13571;SDS011;6857;53.484;10.216;2024-02-23T07:22:16;2.97;;;1.43;;
13571;SDS011;6857;53.484;10.216;2024-02-23T07:24:45;4.17;;;1.37;;
13571;SDS011;6857;53.484;10.216;2024-02-23T07:27:11;2.77;;;1.33;;
13571;SDS011;6857;53.484;10.216;2024-02-23T07:29:36;7.57;;;1.67;;
13571;SDS011;6857;53.484;10.216;2024-02-23T07:32:03;2.80;;;1.23;;
13571;SDS011;6857;53.484;10.216;2024-02-23T07:34:29;3.97;;;1.60;;
13571;SDS011;6857;53.484;10.216;2024-02-23T07:36:56;2.57;;;1.10;;
13571;SDS011;6857;53.484;10.216;2024-02-23T07:39:21;3.43;;;1.30;;
13571;SDS011;6857;53.484;10.216;2024-02-23T07:41:47;2.57;;;1.30;;
13571;SDS011;6857;53.484;10.216;2024-02-23T07:44:13;3.07;;;1.10;;
13571;SDS011;6857;53.484;10.216;2024-02-23T07:46:38;5.63;;;1.10;;
13571;SDS011;6857;53.484;10.216;2024-02-23T07:49:04;5.17;;;1.20;;
13571;SDS011;6857;53.484;10.216;2024-02-23T07:51:34;6.97;;;1.50;;
13571;SDS011;6857;53.484;10.216;2024-02-23T07:54:00;2.87;;;1.17;;
13571;SDS011;6857;53.484;10.216;2024-02-23T07:56:25;4.10;;;1.20;;
13571;SDS011;6857;53.484;10.216;2024-02-23T07:58:51;4.43;;;1.30;;
13571;SDS011;6857;53.484;10.216;2024-02-23T08:01:16;5.03;;;0.90;;
13571;SDS011;6857;53.484;10.216;2024-02-23T08:03:42;4.53;;;1.30;;
13571;SDS011;6857;53.484;10.216;2024-02-23T08:06:08;6.83;;;1.43;;
13571;SDS011;6857;53.484;10.216;2024-02-23T08:08:34;2.70;;;1.30;;
13571;SDS011;6857;53.484;10.216;2024-02-23T08:11:01;4.37;;;1.20;;
13571;SDS011;6857;53.484;10.216;2024-02-23T08:13:27;4.70;;;1.30;;
13571;SDS011;6857;53.484;10.216;2024-02-23T08:15:53;2.90;;;1.20;;
13571;SDS011;6857;53.484;10.216;2024-02-23T08:18:18;5.10;;;1.27;;
13571;SDS011;6857;53.484;10.216;2024-02-23T08:20:44;3.40;;;1.27;;
13571;SDS011;6857;53.484;10.216;2024-02-23T08:23:09;2.57;;;1.10;;
13571;SDS011;6857;53.484;10.216;2024-02-23T08:25:36;2.47;;;1.10;;
13571;SDS011;6857;53.484;10.216;2024-02-23T08:28:01;7.97;;;1.27;;
13571;SDS011;6857;53.484;10.216;2024-02-23T08:30:27;2.87;;;1.10;;
13571;SDS011;6857;53.484;10.216;2024-02-23T08:32:53;6.80;;;1.13;;
13571;SDS011;6857;53.484;10.216;2024-02-23T08:35:19;3.30;;;1.13;;
13571;SDS011;6857;53.484;10.216;2024-02-23T08:37:45;4.50;;;1.10;;
13571;SDS011;6857;53.484;10.216;2024-02-23T08:40:10;3.23;;;1.30;;
13571;SDS011;6857;53.484;10.216;2024-02-23T08:42:36;4.73;;;1.10;;
13571;SDS011;6857;53.484;10.216;2024-02-23T08:45:02;2.73;;;1.33;;
13571;SDS011;6857;53.484;10.216;2024-02-23T08:47:29;3.57;;;1.80;;
13571;SDS011;6857;53.484;10.216;2024-02-23T08:49:57;2.90;;;1.10;;
13571;SDS011;6857;53.484;10.216;2024-02-23T08:52:23;3.27;;;1.20;;
13571;SDS011;6857;53.484;10.216;2024-02-23T08:54:49;5.40;;;1.20;;
13571;SDS011;6857;53.484;10.216;2024-02-23T08:57:15;2.50;;;1.20;;
13571;SDS011;6857;53.484;10.216;2024-02-23T08:59:44;4.23;;;1.17;;
13571;SDS011;6857;53.484;10.216;2024-02-23T09:02:10;3.30;;;0.97;;
13571;SDS011;6857;53.484;10.216;2024-02-23T09:04:35;3.93;;;1.30;;
13571;SDS011;6857;53.484;10.216;2024-02-23T09:07:01;5.00;;;1.70;;
13571;SDS011;6857;53.484;10.216;2024-02-23T09:09:27;2.27;;;1.10;;
13571;SDS011;6857;53.484;10.216;2024-02-23T09:11:53;2.20;;;0.90;;
13571;SDS011;6857;53.484;10.216;2024-02-23T09:14:18;3.97;;;1.10;;
13571;SDS011;6857;53.484;10.216;2024-02-23T09:16:44;4.70;;;1.63;;
13571;SDS011;6857;53.484;10.216;2024-02-23T09:19:11;4.37;;;1.43;;
13571;SDS011;6857;53.484;10.216;2024-02-23T09:21:37;4.03;;;1.20;;
13571;SDS011;6857;53.484;10.216;2024-02-23T09:24:03;3.43;;;0.90;;
13571;SDS011;6857;53.484;10.216;2024-02-23T09:26:29;8.63;;;1.50;;
13571;SDS011;6857;53.484;10.216;2024-02-23T09:28:55;3.00;;;1.23;;
13571;SDS011;6857;53.484;10.216;2024-02-23T09:31:20;6.23;;;1.10;;
13571;SDS011;6857;53.484;10.216;2024-02-23T09:33:46;4.13;;;1.17;;
13571;SDS011;6857;53.484;10.216;2024-02-23T09:36:13;2.70;;;1.13;;
13571;SDS011;6857;53.484;10.216;2024-02-23T09:38:39;4.67;;;1.43;;
13571;SDS011;6857;53.484;10.216;2024-02-23T09:41:04;4.00;;;1.20;;
13571;SDS011;6857;53.484;10.216;2024-02-23T09:43:53;4.67;;;1.40;;
13571;SDS011;6857;53.484;10.216;2024-02-23T09:46:23;3.20;;;1.00;;
13571;SDS011;6857;53.484;10.216;2024-02-23T09:48:51;4.07;;;1.33;;
13571;SDS011;6857;53.484;10.216;2024-02-23T09:51:16;3.30;;;1.03;;
13571;SDS011;6857;53.484;10.216;2024-02-23T09:53:43;2.60;;;0.90;;
13571;SDS011;6857;53.484;10.216;2024-02-23T09:56:09;2.93;;;1.00;;
13571;SDS011;6857;53.484;10.216;2024-02-23T09:58:39;2.77;;;1.10;;
13571;SDS011;6857;53.484;10.216;2024-02-23T10:01:07;2.57;;;1.20;;
13571;SDS011;6857;53.484;10.216;2024-02-23T10:03:36;2.40;;;1.20;;
13571;SDS011;6857;53.484;10.216;2024-02-23T10:06:02;4.50;;;0.90;;
13571;SDS011;6857;53.484;10.216;2024-02-23T10:08:29;4.13;;;1.57;;
13571;SDS011;6857;53.484;10.216;2024-02-23T10:10:55;3.50;;;1.33;;
13571;SDS011;6857;53.484;10.216;2024-02-23T10:13:22;5.70;;;1.40;;
13571;SDS011;6857;53.484;10.216;2024-02-23T10:15:49;5.73;;;1.30;;
13571;SDS011;6857;53.484;10.216;2024-02-23T10:18:15;5.03;;;1.17;;
13571;SDS011;6857;53.484;10.216;2024-02-23T10:20:41;2.67;;;0.93;;
13571;SDS011;6857;53.484;10.216;2024-02-23T10:23:07;4.73;;;1.27;;
13571;SDS011;6857;53.484;10.216;2024-02-23T10:25:33;2.93;;;0.77;;
13571;SDS011;6857;53.484;10.216;2024-02-23T10:28:03;4.00;;;2.23;;
13571;SDS011;6857;53.484;10.216;2024-02-23T10:30:30;3.27;;;1.10;;
13571;SDS011;6857;53.484;10.216;2024-02-23T10:32:56;9.53;;;1.60;;
13571;SDS011;6857;53.484;10.216;2024-02-23T10:35:22;6.90;;;1.00;;
13571;SDS011;6857;53.484;10.216;2024-02-23T10:37:49;2.60;;;0.77;;
13571;SDS011;6857;53.484;10.216;2024-02-23T10:40:16;2.17;;;0.97;;
13571;SDS011;6857;53.484;10.216;2024-02-23T10:42:46;2.60;;;1.00;;
13571;SDS011;6857;53.484;10.216;2024-02-23T10:45:12;6.43;;;1.00;;
13571;SDS011;6857;53.484;10.216;2024-02-23T10:47:41;6.43;;;1.10;;
13571;SDS011;6857;53.484;10.216;2024-02-23T10:50:07;3.43;;;1.30;;
13571;SDS011;6857;53.484;10.216;2024-02-23T10:52:33;3.20;;;0.83;;
13571;SDS011;6857;53.484;10.216;2024-02-23T10:55:00;3.57;;;0.90;;
13571;SDS011;6857;53.484;10.216;2024-02-23T10:57:29;3.43;;;0.93;;
13571;SDS011;6857;53.484;10.216;2024-02-23T10:59:56;2.90;;;0.90;;
13571;SDS011;6857;53.484;10.216;2024-02-23T11:02:22;2.67;;;1.17;;
13571;SDS011;6857;53.484;10.216;2024-02-23T11:04:51;5.20;;;1.00;;
13571;SDS011;6857;53.484;10.216;2024-02-23T11:07:19;2.67;;;0.90;;
13571;SDS011;6857;53.484;10.216;2024-02-23T11:09:49;1.63;;;0.80;;
13571;SDS011;6857;53.484;10.216;2024-02-23T11:12:23;4.27;;;1.00;;
13571;SDS011;6857;53.484;10.216;2024-02-23T11:14:50;4.07;;;1.00;;
13571;SDS011;6857;53.484;10.216;2024-02-23T11:17:19;4.53;;;0.87;;
13571;SDS011;6857;53.484;10.216;2024-02-23T11:19:45;3.90;;;1.00;;
13571;SDS011;6857;53.484;10.216;2024-02-23T11:22:14;1.93;;;0.77;;
13571;SDS011;6857;53.484;10.216;2024-02-23T11:24:43;2.73;;;1.20;;
13571;SDS011;6857;53.484;10.216;2024-02-23T11:27:15;8.63;;;1.20;;
13571;SDS011;6857;53.484;10.216;2024-02-23T11:29:43;2.37;;;0.90;;
13571;SDS011;6857;53.484;10.216;2024-02-23T11:32:14;3.70;;;0.80;;
13571;SDS011;6857;53.484;10.216;2024-02-23T11:34:41;2.87;;;1.07;;
13571;SDS011;6857;53.484;10.216;2024-02-23T11:37:07;4.70;;;1.03;;
13571;SDS011;6857;53.484;10.216;2024-02-23T11:39:35;5.50;;;1.23;;
13571;SDS011;6857;53.484;10.216;2024-02-23T11:42:03;2.97;;;0.80;;
13571;SDS011;6857;53.484;10.216;2024-02-23T11:44:30;2.07;;;0.80;;
13571;SDS011;6857;53.484;10.216;2024-02-23T11:46:56;4.53;;;1.00;;
13571;SDS011;6857;53.484;10.216;2024-02-23T11:49:32;3.87;;;0.80;;
13571;SDS011;6857;53.484;10.216;2024-02-23T11:51:58;2.47;;;0.70;;
13571;SDS011;6857;53.484;10.216;2024-02-23T11:54:24;5.47;;;1.60;;
13571;SDS011;6857;53.484;10.216;2024-02-23T11:56:49;3.97;;;0.90;;
13571;SDS011;6857;53.484;10.216;2024-02-23T11:59:17;2.10;;;1.20;;
13571;SDS011;6857;53.484;10.216;2024-02-23T12:01:46;3.00;;;0.80;;
13571;SDS011;6857;53.484;10.216;2024-02-23T12:04:14;3.77;;;0.87;;
13571;SDS011;6857;53.484;10.216;2024-02-23T12:06:41;1.30;;;0.50;;
13571;SDS011;6857;53.484;10.216;2024-02-23T12:09:07;3.70;;;0.87;;
13571;SDS011;6857;53.484;10.216;2024-02-23T12:11:33;1.33;;;0.80;;
13571;SDS011;6857;53.484;10.216;2024-02-23T12:13:59;3.33;;;0.73;;
13571;SDS011;6857;53.484;10.216;2024-02-23T12:16:27;2.83;;;0.90;;
13571;SDS011;6857;53.484;10.216;2024-02-23T12:18:53;2.87;;;0.70;;
13571;SDS011;6857;53.484;10.216;2024-02-23T12:21:20;1.57;;;0.60;;
13571;SDS011;6857;53.484;10.216;2024-02-23T12:23:48;2.53;;;0.90;;
13571;SDS011;6857;53.484;10.216;2024-02-23T12:26:15;3.00;;;1.30;;
13571;SDS011;6857;53.484;10.216;2024-02-23T12:28:42;2.67;;;0.80;;
13571;SDS011;6857;53.484;10.216;2024-02-23T12:31:09;2.53;;;0.70;;
13571;SDS011;6857;53.484;10.216;2024-02-23T12:33:36;6.43;;;0.80;;
13571;SDS011;6857;53.484;10.216;2024-02-23T12:36:03;1.93;;;0.90;;
13571;SDS011;6857;53.484;10.216;2024-02-23T12:38:30;3.60;;;1.20;;
13571;SDS011;6857;53.484;10.216;2024-02-23T12:40:56;1.80;;;0.60;;
13571;SDS011;6857;53.484;10.216;2024-02-23T12:43:22;3.63;;;1.10;;
13571;SDS011;6857;53.484;10.216;2024-02-23T12:45:52;1.80;;;0.70;;
13571;SDS011;6857;53.484;10.216;2024-02-23T12:48:19;4.30;;;1.00;;
13571;SDS011;6857;53.484;10.216;2024-02-23T12:50:45;1.27;;;0.70;;
13571;SDS011;6857;53.484;10.216;2024-02-23T12:56:02;2.73;;;0.70;;
13571;SDS011;6857;53.484;10.216;2024-02-23T12:58:30;4.47;;;0.80;;
13571;SDS011;6857;53.484;10.216;2024-02-23T13:00:58;2.40;;;0.67;;
13571;SDS011;6857;53.484;10.216;2024-02-23T13:03:25;3.10;;;1.63;;
13571;SDS011;6857;53.484;10.216;2024-02-23T13:05:51;2.90;;;0.70;;
13571;SDS011;6857;53.484;10.216;2024-02-23T13:08:18;0.97;;;0.70;;
13571;SDS011;6857;53.484;10.216;2024-02-23T13:10:43;2.00;;;0.80;;
13571;SDS011;6857;53.484;10.216;2024-02-23T13:13:09;2.00;;;0.70;;
13571;SDS011;6857;53.484;10.216;2024-02-23T13:15:35;1.73;;;0.60;;
13571;SDS011;6857;53.484;10.216;2024-02-23T13:18:04;2.30;;;0.90;;
13571;SDS011;6857;53.484;10.216;2024-02-23T13:20:29;1.73;;;0.90;;
13571;SDS011;6857;53.484;10.216;2024-02-23T13:22:55;2.07;;;0.80;;
13571;SDS011;6857;53.484;10.216;2024-02-23T13:25:21;3.33;;;0.80;;
13571;SDS011;6857;53.484;10.216;2024-02-23T13:27:46;0.97;;;0.50;;
13571;SDS011;6857;53.484;10.216;2024-02-23T13:30:12;2.80;;;0.50;;
13571;SDS011;6857;53.484;10.216;2024-02-23T13:32:38;1.70;;;0.70;;
13571;SDS011;6857;53.484;10.216;2024-02-23T13:35:04;2.03;;;0.53;;
13571;SDS011;6857;53.484;10.216;2024-02-23T13:37:31;0.70;;;0.40;;
13571;SDS011;6857;53.484;10.216;2024-02-23T13:39:57;1.50;;;0.50;;
13571;SDS011;6857;53.484;10.216;2024-02-23T13:42:23;0.80;;;0.50;;
13571;SDS011;6857;53.484;10.216;2024-02-23T13:44:49;2.50;;;0.63;;
13571;SDS011;6857;53.484;10.216;2024-02-23T13:47:14;0.93;;;0.50;;
13571;SDS011;6857;53.484;10.216;2024-02-23T13:49:40;1.20;;;0.50;;
13571;SDS011;6857;53.484;10.216;2024-02-23T13:52:05;1.80;;;0.50;;
13571;SDS011;6857;53.484;10.216;2024-02-23T13:54:31;2.43;;;0.60;;
13571;SDS011;6857;53.484;10.216;2024-02-23T13:56:57;3.07;;;0.60;;
13571;SDS011;6857;53.484;10.216;2024-02-23T13:59:22;1.00;;;0.53;;
13571;SDS011;6857;53.484;10.216;2024-02-23T14:01:48;1.60;;;0.47;;
13571;SDS011;6857;53.484;10.216;2024-02-23T14:04:13;1.27;;;0.40;;
13571;SDS011;6857;53.484;10.216;2024-02-23T14:06:39;1.87;;;0.53;;
13571;SDS011;6857;53.484;10.216;2024-02-23T14:09:04;2.23;;;0.70;;
13571;SDS011;6857;53.484;10.216;2024-02-23T14:11:30;0.73;;;0.50;;
13571;SDS011;6857;53.484;10.216;2024-02-23T14:13:56;0.60;;;0.50;;
13571;SDS011;6857;53.484;10.216;2024-02-23T14:16:22;1.50;;;0.60;;
13571;SDS011;6857;53.484;10.216;2024-02-23T14:18:51;1.93;;;0.60;;
13571;SDS011;6857;53.484;10.216;2024-02-23T14:21:16;2.67;;;0.90;;
13571;SDS011;6857;53.484;10.216;2024-02-23T14:23:43;2.83;;;0.73;;
13571;SDS011;6857;53.484;10.216;2024-02-23T14:26:09;2.77;;;0.60;;
13571;SDS011;6857;53.484;10.216;2024-02-23T14:28:35;1.23;;;0.63;;
13571;SDS011;6857;53.484;10.216;2024-02-23T14:31:00;2.20;;;0.60;;
13571;SDS011;6857;53.484;10.216;2024-02-23T14:33:26;1.17;;;0.50;;
13571;SDS011;6857;53.484;10.216;2024-02-23T14:35:51;2.63;;;0.70;;
13571;SDS011;6857;53.484;10.216;2024-02-23T14:38:17;2.87;;;0.73;;
13571;SDS011;6857;53.484;10.216;2024-02-23T14:40:43;5.53;;;1.20;;
13571;SDS011;6857;53.484;10.216;2024-02-23T14:43:08;2.20;;;0.80;;
13571;SDS011;6857;53.484;10.216;2024-02-23T14:45:34;4.03;;;0.83;;